createdAt,value
2022-09-21T00:01:54.146Z,10.11
2022-09-21T00:04:20.893Z,10.13
2022-09-21T00:06:47.948Z,10.08
2022-09-21T00:09:15.222Z,10.02
2022-09-21T00:11:42.191Z,10.05
2022-09-21T00:14:11.662Z,9.96
2022-09-21T00:16:39.685Z,9.92
2022-09-21T00:19:06.806Z,9.85
2022-09-21T00:21:34.397Z,9.92
2022-09-21T00:24:02.703Z,9.89
2022-09-21T00:26:29.645Z,9.88
2022-09-21T00:28:57.884Z,9.85
2022-09-21T00:31:25.471Z,9.84
2022-09-21T00:33:52.897Z,9.84
2022-09-21T00:36:21.615Z,9.81
2022-09-21T00:38:56.670Z,9.80
2022-09-21T00:41:25.146Z,9.81
2022-09-21T00:44:10.825Z,9.78
2022-09-21T00:46:39.926Z,9.76
2022-09-21T00:49:07.369Z,9.73
2022-09-21T00:51:34.366Z,9.75
2022-09-21T00:54:04.828Z,9.75
2022-09-21T00:56:31.569Z,9.71
2022-09-21T00:58:58.548Z,9.68
2022-09-21T01:01:25.687Z,9.67
2022-09-21T01:03:53.660Z,9.64
2022-09-21T01:06:22.258Z,9.59
2022-09-21T01:08:53.846Z,9.55
2022-09-21T01:11:34.475Z,9.56
2022-09-21T01:14:07.324Z,9.56
2022-09-21T01:16:34.718Z,9.58
2022-09-21T01:19:20.655Z,9.60
2022-09-21T01:21:54.191Z,9.61
2022-09-21T01:24:38.866Z,9.64
2022-09-21T01:27:35.896Z,9.66
2022-09-21T01:30:05.945Z,9.64
2022-09-21T01:32:42.249Z,9.61
2022-09-21T01:35:13.015Z,9.58
2022-09-21T01:37:43.623Z,9.56
2022-09-21T01:40:13.835Z,9.51
2022-09-21T01:42:41.616Z,9.47
2022-09-21T01:45:10.837Z,9.43
2022-09-21T01:47:39.216Z,9.39
2022-09-21T01:50:08.526Z,9.35
2022-09-21T01:52:43.424Z,9.32
2022-09-21T01:55:13.106Z,9.28
2022-09-21T01:57:55.199Z,9.25
2022-09-21T02:00:23.046Z,9.23
2022-09-21T02:02:52.021Z,9.24
2022-09-21T02:05:20.200Z,9.23
2022-09-21T02:07:48.545Z,9.23
2022-09-21T02:10:19.409Z,9.19
2022-09-21T02:12:47.158Z,9.14
2022-09-21T02:15:16.579Z,9.12
2022-09-21T02:17:43.350Z,9.10
2022-09-21T02:20:15.140Z,9.09
2022-09-21T02:22:49.666Z,9.08
2022-09-21T02:25:18.677Z,9.10
2022-09-21T02:28:15.115Z,9.08
2022-09-21T02:30:44.763Z,9.08
2022-09-21T02:33:15.040Z,9.07
2022-09-21T02:35:54.220Z,9.07
2022-09-21T02:38:21.228Z,9.06
2022-09-21T02:40:54.138Z,9.04
2022-09-21T02:43:23.918Z,9.04
2022-09-21T02:45:55.658Z,9.00
2022-09-21T02:48:28.018Z,8.96
2022-09-21T02:50:57.282Z,8.95
2022-09-21T02:53:26.189Z,8.92
2022-09-21T02:55:56.586Z,8.90
2022-09-21T02:58:25.814Z,8.91
2022-09-21T03:00:52.945Z,8.83
2022-09-21T03:03:22.154Z,8.78
2022-09-21T03:05:51.054Z,8.76
2022-09-21T03:08:38.346Z,8.75
2022-09-21T03:11:05.947Z,8.72
2022-09-21T03:13:32.707Z,8.70
2022-09-21T03:16:02.360Z,8.70
2022-09-21T03:18:32.138Z,8.69
2022-09-21T03:20:59.257Z,8.71
2022-09-21T03:23:26.425Z,8.68
2022-09-21T03:25:55.085Z,8.59
2022-09-21T03:28:22.282Z,8.60
2022-09-21T03:30:50.129Z,8.54
2022-09-21T03:33:18.087Z,8.56
2022-09-21T03:35:45.003Z,8.59
2022-09-21T03:38:11.912Z,8.63
2022-09-21T03:40:40.365Z,8.63
2022-09-21T03:43:08.220Z,8.66
2022-09-21T03:45:34.913Z,8.66
2022-09-21T03:48:02.241Z,8.68
2022-09-21T03:50:29.241Z,8.72
2022-09-21T03:52:56.591Z,8.73
2022-09-21T03:55:23.820Z,8.77
2022-09-21T03:57:50.805Z,8.90
2022-09-21T04:00:18.117Z,8.90
2022-09-21T04:02:45.268Z,8.86
2022-09-21T04:05:14.806Z,8.93
2022-09-21T04:07:42.376Z,8.94
2022-09-21T04:10:14.521Z,8.94
2022-09-21T04:12:43.408Z,8.94
2022-09-21T04:15:19.617Z,8.89
2022-09-21T04:17:46.780Z,8.91
2022-09-21T04:20:13.793Z,8.92
2022-09-21T04:22:43.501Z,8.90
2022-09-21T04:25:11.051Z,8.89
2022-09-21T04:27:38.265Z,8.87
2022-09-21T04:30:06.152Z,8.86
2022-09-21T04:32:32.942Z,8.86
2022-09-21T04:35:00.003Z,8.90
2022-09-21T04:37:27.373Z,8.91
2022-09-21T04:39:54.142Z,8.90
2022-09-21T04:42:21.273Z,8.91
2022-09-21T04:44:48.021Z,8.94
2022-09-21T04:47:15.177Z,8.94
2022-09-21T04:49:42.331Z,8.94
2022-09-21T04:52:13.754Z,8.97
2022-09-21T04:54:44.447Z,9.02
2022-09-21T04:57:11.186Z,9.00
2022-09-21T04:59:38.200Z,9.02
2022-09-21T05:02:05.298Z,9.06
2022-09-21T05:04:32.362Z,9.03
2022-09-21T05:07:00.499Z,9.05
2022-09-21T05:09:46.197Z,9.07
2022-09-21T05:12:13.042Z,9.04
2022-09-21T05:14:41.189Z,9.09
2022-09-21T05:17:08.011Z,9.20
2022-09-21T05:19:34.695Z,9.39
2022-09-21T05:22:02.243Z,9.51
2022-09-21T05:24:29.378Z,9.61
2022-09-21T05:27:36.228Z,9.70
2022-09-21T05:30:03.817Z,9.78
2022-09-21T05:32:36.907Z,9.85
2022-09-21T05:35:04.927Z,9.87
2022-09-21T05:37:44.373Z,9.92
2022-09-21T05:40:12.012Z,9.83
2022-09-21T05:42:39.074Z,9.87
2022-09-21T05:45:06.334Z,9.89
2022-09-21T05:47:49.052Z,9.96
2022-09-21T05:50:25.669Z,9.95
2022-09-21T05:53:11.126Z,10.00
2022-09-21T05:55:40.969Z,10.08
2022-09-21T05:58:31.035Z,10.14
2022-09-21T06:01:03.840Z,10.17
2022-09-21T06:03:32.479Z,10.27
2022-09-21T06:05:59.958Z,10.46
2022-09-21T06:08:26.889Z,10.91
2022-09-21T06:10:54.852Z,11.57
2022-09-21T06:13:21.667Z,12.23
2022-09-21T06:15:48.469Z,12.94
2022-09-21T06:18:17.986Z,13.31
2022-09-21T06:20:45.450Z,13.78
2022-09-21T06:23:13.172Z,14.55
2022-09-21T06:25:40.340Z,14.95
2022-09-21T06:28:09.551Z,15.48
2022-09-21T06:30:36.719Z,15.96
2022-09-21T06:33:04.552Z,16.30
2022-09-21T06:35:32.119Z,16.24
2022-09-21T06:37:59.691Z,16.41
2022-09-21T06:40:30.609Z,16.64
2022-09-21T06:42:58.313Z,16.70
2022-09-21T06:45:25.622Z,17.07
2022-09-21T06:47:52.893Z,17.42
2022-09-21T06:50:20.157Z,17.91
2022-09-21T06:52:47.025Z,17.83
2022-09-21T06:55:14.326Z,18.09
2022-09-21T06:57:41.286Z,18.37
2022-09-21T07:00:09.517Z,18.38
2022-09-21T07:02:36.565Z,18.39
2022-09-21T07:05:03.879Z,18.47
2022-09-21T07:07:32.396Z,18.39
2022-09-21T07:10:13.151Z,18.50
2022-09-21T07:12:43.268Z,18.62
2022-09-21T07:15:10.661Z,18.78
2022-09-21T07:17:39.398Z,18.85
2022-09-21T07:20:07.971Z,18.67
2022-09-21T07:22:35.749Z,18.63
2022-09-21T07:25:02.932Z,18.74
2022-09-21T07:27:30.656Z,18.58
2022-09-21T07:29:57.935Z,18.64
2022-09-21T07:32:26.106Z,18.42
2022-09-21T07:34:57.129Z,18.62
2022-09-21T07:37:25.071Z,18.67
2022-09-21T07:39:52.937Z,18.77
2022-09-21T07:42:21.593Z,18.92
2022-09-21T07:44:48.970Z,18.65
2022-09-21T07:47:16.222Z,18.36
2022-09-21T07:49:43.057Z,17.45
2022-09-21T07:52:11.259Z,17.52
2022-09-21T07:54:38.652Z,17.67
2022-09-21T07:57:25.247Z,17.55
2022-09-21T07:59:52.302Z,17.44
2022-09-21T08:02:19.136Z,17.11
2022-09-21T08:04:45.952Z,17.04
2022-09-21T08:07:14.103Z,17.27
2022-09-21T08:09:41.861Z,17.25
2022-09-21T08:12:09.031Z,17.67
2022-09-21T08:14:36.319Z,18.07
2022-09-21T08:17:03.776Z,18.54
2022-09-21T08:19:30.571Z,18.75
2022-09-21T08:21:58.162Z,18.95
2022-09-21T08:24:26.868Z,18.91
2022-09-21T08:26:55.963Z,18.90
2022-09-21T08:29:26.670Z,18.98
2022-09-21T08:32:39.399Z,18.83
2022-09-21T08:35:05.353Z,18.28
2022-09-21T08:37:33.283Z,18.17
2022-09-21T08:40:02.468Z,18.70
2022-09-21T08:42:38.809Z,18.65
2022-09-21T08:45:10.180Z,18.53
2022-09-21T08:47:43.749Z,18.79
2022-09-21T08:50:30.829Z,18.84
2022-09-21T08:53:01.755Z,18.74
2022-09-21T08:55:28.498Z,18.84
2022-09-21T08:57:55.353Z,18.65
2022-09-21T09:00:23.364Z,18.65
2022-09-21T09:03:08.721Z,18.62
2022-09-21T09:05:46.182Z,18.97
2022-09-21T09:08:31.907Z,18.20
2022-09-21T09:11:10.272Z,17.46
2022-09-21T09:13:37.063Z,17.42
2022-09-21T09:16:22.742Z,17.16
2022-09-21T09:18:52.803Z,17.45
2022-09-21T09:21:31.544Z,17.30
2022-09-21T09:24:01.782Z,17.20
2022-09-21T09:26:40.009Z,17.22
2022-09-21T09:29:16.268Z,17.20
2022-09-21T09:31:43.834Z,17.26
2022-09-21T09:34:30.864Z,17.41
2022-09-21T09:36:59.836Z,17.24
2022-09-21T09:39:28.848Z,17.09
2022-09-21T09:42:05.751Z,16.60
2022-09-21T09:44:48.206Z,16.21
2022-09-21T09:47:28.628Z,15.81
2022-09-21T09:50:02.928Z,15.84
2022-09-21T09:52:31.238Z,15.80
2022-09-21T09:55:12.233Z,15.88
2022-09-21T09:57:39.055Z,15.77
2022-09-21T10:00:12.321Z,15.94
2022-09-21T10:02:47.029Z,15.85
2022-09-21T10:05:20.775Z,15.82
2022-09-21T10:07:49.220Z,16.03
2022-09-21T10:10:23.200Z,16.12
2022-09-21T10:12:51.569Z,16.05
2022-09-21T10:15:19.423Z,15.96
2022-09-21T10:17:47.157Z,16.02
2022-09-21T10:20:16.578Z,16.10
2022-09-21T10:22:48.325Z,15.98
2022-09-21T10:25:19.554Z,15.94
2022-09-21T10:27:50.709Z,16.09
2022-09-21T10:30:42.493Z,16.26
2022-09-21T10:33:19.277Z,16.42
2022-09-21T10:35:50.435Z,16.48
2022-09-21T10:38:22.341Z,16.46
2022-09-21T10:40:50.315Z,16.37
2022-09-21T10:43:25.343Z,16.40
2022-09-21T10:45:56.609Z,16.02
2022-09-21T10:48:25.995Z,16.05
2022-09-21T10:50:53.893Z,16.07
2022-09-21T10:53:37.046Z,16.06
2022-09-21T10:56:17.454Z,16.12
2022-09-21T10:59:20.244Z,16.29
2022-09-21T11:01:48.746Z,16.54
2022-09-21T11:04:22.218Z,16.74
2022-09-21T11:06:52.544Z,16.91
2022-09-21T11:09:35.227Z,16.99
2022-09-21T11:12:07.213Z,16.92
2022-09-21T11:14:49.813Z,16.85
2022-09-21T11:17:23.140Z,16.86
2022-09-21T11:20:16.392Z,17.00
2022-09-21T11:22:43.489Z,17.39
2022-09-21T11:25:25.176Z,17.42
2022-09-21T11:27:56.311Z,17.36
2022-09-21T11:30:24.803Z,17.29
2022-09-21T11:32:57.824Z,17.44
2022-09-21T11:35:41.158Z,17.30
2022-09-21T11:38:17.413Z,17.01
2022-09-21T11:40:54.463Z,16.89
2022-09-21T11:43:34.447Z,16.83
2022-09-21T11:46:14.895Z,16.81
2022-09-21T11:49:00.775Z,16.80
2022-09-21T11:51:40.692Z,16.80
2022-09-21T11:54:16.138Z,16.66
2022-09-21T11:57:01.612Z,16.28
2022-09-21T11:59:29.982Z,16.22
2022-09-21T12:02:20.496Z,16.29
2022-09-21T12:04:59.576Z,16.38
2022-09-21T12:07:55.204Z,16.58
2022-09-21T12:10:22.276Z,16.65
2022-09-21T12:12:54.388Z,16.68
2022-09-21T12:15:26.594Z,16.73
2022-09-21T12:17:53.567Z,16.82
2022-09-21T12:20:35.868Z,16.79
2022-09-21T12:23:06.215Z,16.80
2022-09-21T12:25:36.135Z,16.70
2022-09-21T12:28:07.099Z,16.87
2022-09-21T12:30:34.518Z,16.63
2022-09-21T12:33:08.988Z,16.66
2022-09-21T12:35:39.302Z,16.49
2022-09-21T12:38:06.124Z,16.33
2022-09-21T12:40:33.073Z,16.42
2022-09-21T12:43:15.743Z,16.54
2022-09-21T12:46:27.416Z,16.70
2022-09-21T12:48:54.972Z,16.65
2022-09-21T12:51:27.182Z,16.70
2022-09-21T12:53:56.291Z,16.87
2022-09-21T12:56:55.521Z,16.80
2022-09-21T12:59:22.612Z,16.59
2022-09-21T13:02:05.455Z,16.51
2022-09-21T13:04:35.536Z,16.60
2022-09-21T13:07:22.225Z,16.72
2022-09-21T13:09:50.677Z,16.67
2022-09-21T13:12:21.953Z,16.95
2022-09-21T13:14:51.274Z,17.08
2022-09-21T13:17:25.324Z,17.06
2022-09-21T13:20:01.159Z,17.07
2022-09-21T13:22:34.126Z,17.15
2022-09-21T13:25:01.455Z,17.40
2022-09-21T13:27:46.802Z,17.35
2022-09-21T13:30:29.556Z,17.33
2022-09-21T13:32:56.836Z,17.24
2022-09-21T13:35:42.611Z,17.22
2022-09-21T13:38:24.475Z,17.32
2022-09-21T13:41:01.978Z,17.28
2022-09-21T13:43:48.174Z,17.00
2022-09-21T13:46:33.256Z,17.12
2022-09-21T13:49:02.296Z,17.19
2022-09-21T13:51:33.365Z,16.84
2022-09-21T13:54:02.192Z,16.67
2022-09-21T13:56:33.354Z,16.41
2022-09-21T13:59:00.249Z,16.30
2022-09-21T14:01:51.290Z,16.16
2022-09-21T14:04:25.400Z,16.31
2022-09-21T14:06:54.306Z,16.54
2022-09-21T14:09:33.127Z,16.89
2022-09-21T14:12:06.429Z,16.76
2022-09-21T14:14:37.335Z,16.67
2022-09-21T14:17:05.134Z,16.77
2022-09-21T14:19:33.517Z,16.88
2022-09-21T14:22:03.354Z,16.89
2022-09-21T14:24:45.462Z,16.93
2022-09-21T14:27:31.223Z,16.87
2022-09-21T14:30:00.305Z,16.76
2022-09-21T14:32:29.577Z,16.88
2022-09-21T14:35:02.124Z,16.97
2022-09-21T14:37:38.188Z,17.07
2022-09-21T14:40:16.582Z,17.06
2022-09-21T14:42:44.683Z,17.12
2022-09-21T14:45:18.324Z,17.09
2022-09-21T14:48:05.957Z,17.05
2022-09-21T14:50:32.755Z,17.12
2022-09-21T14:53:28.190Z,17.16
2022-09-21T14:56:10.246Z,17.14
2022-09-21T14:58:55.783Z,17.19
2022-09-21T15:01:31.930Z,17.01
2022-09-21T15:04:08.121Z,16.96
2022-09-21T15:06:56.081Z,16.88
2022-09-21T15:10:00.591Z,16.88
2022-09-21T15:12:42.608Z,16.88
2022-09-21T15:15:15.680Z,16.84
2022-09-21T15:17:59.318Z,16.95
2022-09-21T15:20:27.559Z,16.71
2022-09-21T15:22:56.588Z,16.76
2022-09-21T15:25:24.631Z,16.69
2022-09-21T15:27:52.071Z,16.72
2022-09-21T15:30:29.373Z,16.89
2022-09-21T15:32:57.996Z,16.86
2022-09-21T15:35:29.244Z,16.93
2022-09-21T15:37:57.237Z,16.91
2022-09-21T15:40:25.638Z,16.83
2022-09-21T15:43:11.434Z,16.83
2022-09-21T15:45:58.180Z,16.74
2022-09-21T15:48:26.261Z,16.52
2022-09-21T15:51:01.302Z,16.05
2022-09-21T15:53:31.081Z,15.68
2022-09-21T15:56:01.647Z,15.59
2022-09-21T15:58:37.389Z,15.44
2022-09-21T16:01:09.529Z,15.57
2022-09-21T16:03:39.039Z,15.54
2022-09-21T16:06:18.359Z,15.39
2022-09-21T16:08:45.091Z,15.40
2022-09-21T16:11:23.360Z,15.29
2022-09-21T16:14:16.967Z,15.22
2022-09-21T16:17:03.054Z,15.20
2022-09-21T16:19:46.137Z,15.07
2022-09-21T16:22:14.422Z,15.04
2022-09-21T16:24:45.044Z,14.95
2022-09-21T16:27:16.245Z,14.84
2022-09-21T16:29:44.093Z,14.73
2022-09-21T16:32:20.108Z,14.73
2022-09-21T16:34:48.365Z,14.68
2022-09-21T16:37:26.819Z,14.67
2022-09-21T16:39:58.302Z,14.61
2022-09-21T16:42:31.325Z,14.56
2022-09-21T16:44:58.593Z,14.59
2022-09-21T16:47:26.512Z,14.61
2022-09-21T16:49:56.510Z,14.59
2022-09-21T16:52:24.043Z,14.45
2022-09-21T16:54:51.030Z,14.47
2022-09-21T16:57:18.066Z,14.36
2022-09-21T16:59:46.663Z,14.21
2022-09-21T17:02:14.459Z,14.24
2022-09-21T17:04:41.553Z,14.27
2022-09-21T17:07:15.144Z,14.17
2022-09-21T17:09:46.483Z,14.10
2022-09-21T17:12:16.772Z,14.03
2022-09-21T17:14:46.744Z,14.03
2022-09-21T17:17:17.418Z,14.00
2022-09-21T17:19:46.639Z,13.90
2022-09-21T17:22:19.679Z,13.99
2022-09-21T17:24:51.372Z,13.95
2022-09-21T17:27:22.848Z,13.87
2022-09-21T17:29:53.778Z,13.84
2022-09-21T17:32:21.799Z,13.87
2022-09-21T17:35:00.690Z,13.87
2022-09-21T17:37:27.818Z,13.84
2022-09-21T17:39:54.746Z,13.75
2022-09-21T17:42:23.079Z,13.70
2022-09-21T17:44:59.674Z,13.65
2022-09-21T17:47:31.228Z,13.55
2022-09-21T17:50:02.478Z,13.50
2022-09-21T17:52:48.907Z,13.48
2022-09-21T17:55:16.091Z,13.35
2022-09-21T17:57:52.851Z,13.28
2022-09-21T18:00:22.185Z,13.20
2022-09-21T18:02:49.735Z,13.16
2022-09-21T18:05:26.800Z,13.14
2022-09-21T18:07:54.202Z,13.08
2022-09-21T18:10:22.052Z,13.03
2022-09-21T18:12:57.828Z,12.97
2022-09-21T18:15:31.449Z,12.94
2022-09-21T18:18:13.740Z,12.91
2022-09-21T18:20:56.894Z,12.90
2022-09-21T18:23:33.081Z,12.89
2022-09-21T18:26:00.593Z,12.86
2022-09-21T18:28:39.595Z,12.83
2022-09-21T18:31:06.659Z,12.77
2022-09-21T18:33:56.879Z,12.73
2022-09-21T18:36:31.570Z,12.65
2022-09-21T18:39:05.726Z,12.61
2022-09-21T18:41:36.411Z,12.56
2022-09-21T18:44:20.089Z,12.53
2022-09-21T18:47:00.162Z,12.49
2022-09-21T18:49:45.275Z,12.44
2022-09-21T18:52:20.103Z,12.39
2022-09-21T18:54:47.355Z,12.34
2022-09-21T18:57:15.036Z,12.31
2022-09-21T18:59:41.873Z,12.27
2022-09-21T19:02:14.806Z,12.26
2022-09-21T19:04:44.105Z,12.27
2022-09-21T19:07:27.680Z,12.28
2022-09-21T19:10:00.335Z,12.23
2022-09-21T19:12:38.641Z,12.19
2022-09-21T19:15:14.919Z,12.15
2022-09-21T19:18:00.533Z,12.14
2022-09-21T19:20:49.816Z,12.13
2022-09-21T19:23:32.016Z,12.15
2022-09-21T19:26:02.940Z,12.09
2022-09-21T19:28:38.647Z,12.16
2022-09-21T19:31:11.430Z,12.17
2022-09-21T19:33:49.880Z,12.15
2022-09-21T19:36:20.348Z,12.14
2022-09-21T19:38:48.191Z,12.13
2022-09-21T19:41:19.333Z,12.13
2022-09-21T19:44:12.708Z,12.15
2022-09-21T19:46:58.350Z,12.17
2022-09-21T19:49:29.517Z,12.21
2022-09-21T19:51:57.037Z,12.30
2022-09-21T19:54:43.743Z,12.36
2022-09-21T19:57:47.960Z,12.45
2022-09-21T20:00:17.011Z,12.55
2022-09-21T20:02:48.935Z,12.65
2022-09-21T20:05:23.439Z,12.74
2022-09-21T20:08:21.189Z,12.82
2022-09-21T20:11:14.414Z,12.93
2022-09-21T20:13:44.508Z,13.01
2022-09-21T20:16:23.575Z,13.08
2022-09-21T20:18:55.009Z,13.15
2022-09-21T20:21:22.435Z,13.16
2022-09-21T20:23:58.161Z,13.18
2022-09-21T20:26:26.356Z,13.16
2022-09-21T20:28:53.768Z,13.15
2022-09-21T20:31:24.939Z,13.16
2022-09-21T20:33:52.354Z,13.15
2022-09-21T20:36:19.211Z,13.10
2022-09-21T20:38:46.007Z,13.09
2022-09-21T20:41:14.272Z,13.10
2022-09-21T20:43:41.374Z,13.13
2022-09-21T20:46:11.488Z,13.11
2022-09-21T20:48:38.749Z,13.08
2022-09-21T20:51:06.451Z,13.03
2022-09-21T20:53:33.911Z,13.00
2022-09-21T20:56:02.071Z,12.92
2022-09-21T20:58:30.688Z,12.87
2022-09-21T21:01:02.929Z,12.82
2022-09-21T21:03:30.124Z,12.76
2022-09-21T21:06:13.950Z,12.71
2022-09-21T21:08:41.301Z,12.66
2022-09-21T21:11:08.109Z,12.61
2022-09-21T21:13:35.308Z,12.52
2022-09-21T21:16:08.157Z,12.49
2022-09-21T21:18:39.216Z,12.46
2022-09-21T21:21:06.379Z,12.46
2022-09-21T21:23:53.151Z,12.45
2022-09-21T21:26:23.960Z,12.45
2022-09-21T21:29:00.456Z,12.47
2022-09-21T21:31:27.768Z,12.45
2022-09-21T21:33:54.547Z,12.45
2022-09-21T21:36:21.335Z,12.47
2022-09-21T21:38:48.448Z,12.49
2022-09-21T21:41:15.485Z,12.52
2022-09-21T21:43:42.311Z,12.51
2022-09-21T21:46:10.416Z,12.52
2022-09-21T21:48:38.129Z,12.52
2022-09-21T21:51:05.630Z,12.53
2022-09-21T21:53:34.611Z,12.51
2022-09-21T21:56:02.375Z,12.47
2022-09-21T21:58:29.222Z,12.42
2022-09-21T22:00:57.527Z,12.36
2022-09-21T22:03:24.335Z,12.28
2022-09-21T22:05:55.191Z,12.22
2022-09-21T22:08:22.249Z,12.12
2022-09-21T22:10:50.058Z,12.05
2022-09-21T22:13:18.053Z,12.01
2022-09-21T22:15:45.518Z,11.93
2022-09-21T22:18:12.566Z,11.87
2022-09-21T22:20:40.635Z,11.83
2022-09-21T22:23:09.115Z,11.76
2022-09-21T22:25:36.095Z,11.74
2022-09-21T22:28:03.108Z,11.72
2022-09-21T22:30:30.265Z,11.70
2022-09-21T22:32:57.097Z,11.70
2022-09-21T22:35:24.319Z,11.68
2022-09-21T22:37:54.692Z,11.67
2022-09-21T22:40:21.720Z,11.61
2022-09-21T22:42:48.858Z,11.57
2022-09-21T22:45:16.007Z,11.58
2022-09-21T22:47:42.761Z,11.57
2022-09-21T22:50:09.610Z,11.59
2022-09-21T22:52:36.789Z,11.63
2022-09-21T22:55:03.808Z,11.65
2022-09-21T22:57:30.590Z,11.67
2022-09-21T22:59:57.614Z,11.69
2022-09-21T23:02:25.439Z,11.68
2022-09-21T23:04:52.320Z,11.68
2022-09-21T23:07:19.474Z,11.73
2022-09-21T23:09:46.163Z,11.75
2022-09-21T23:12:13.011Z,11.80
2022-09-21T23:14:40.303Z,11.80
2022-09-21T23:17:07.287Z,11.86
2022-09-21T23:19:34.137Z,11.88
2022-09-21T23:22:01.339Z,11.89
2022-09-21T23:24:28.137Z,11.90
2022-09-21T23:26:55.393Z,11.85
2022-09-21T23:29:22.918Z,11.83
2022-09-21T23:31:50.106Z,11.85
2022-09-21T23:34:16.955Z,11.85
2022-09-21T23:36:44.540Z,11.79
2022-09-21T23:39:13.400Z,11.66
2022-09-21T23:41:40.494Z,11.52
2022-09-21T23:44:07.540Z,11.41
2022-09-21T23:46:35.903Z,11.36
2022-09-21T23:49:03.088Z,11.34
2022-09-21T23:51:30.123Z,11.28
2022-09-21T23:53:57.374Z,11.22
2022-09-21T23:56:24.624Z,11.15
2022-09-21T23:58:51.988Z,11.11
